Time;durP1;ratioP1;P1;durP2;ratioP2;P2;SDS_P1;SDS_P2;PMS_P1;PMS_P2;Temp;Humidity;BMP_temperature;BMP_pressure;BME280_temperature;BME280_humidity;BME280_pressure;Samples;Min_cycle;Max_cycle;Signal;HPM_P1;HPM_P2
2023/12/08 00:00:32;;;;;;;19.67;8.43;;;;;;;;;;5032281;28;20042;-68
2023/12/08 00:02:58;;;;;;;19.37;8.10;;;;;;;;;;5033869;28;20352;-69
2023/12/08 00:05:23;;;;;;;26.17;9.53;;;;;;;;;;5032279;28;20521;-69
2023/12/08 00:07:48;;;;;;;20.40;8.60;;;;;;;;;;5034318;28;20041;-68
2023/12/08 00:10:14;;;;;;;18.77;7.70;;;;;;;;;;5034306;28;20597;-68
2023/12/08 00:12:39;;;;;;;23.70;10.60;;;;;;;;;;5033913;28;20541;-68
2023/12/08 00:15:05;;;;;;;19.33;8.73;;;;;;;;;;5031488;28;20048;-68
2023/12/08 00:17:31;;;;;;;20.23;8.00;;;;;;;;;;5034972;28;20037;-69
2023/12/08 00:19:56;;;;;;;19.50;10.07;;;;;;;;;;5035361;28;20371;-69
2023/12/08 00:22:21;;;;;;;19.70;8.63;;;;;;;;;;5034915;28;20033;-69
2023/12/08 00:24:47;;;;;;;14.87;6.87;;;;;;;;;;5031363;28;20463;-68
2023/12/08 00:27:12;;;;;;;21.97;9.57;;;;;;;;;;5035223;28;20082;-69
2023/12/08 00:29:38;;;;;;;20.30;8.80;;;;;;;;;;5035420;28;20041;-68
2023/12/08 00:32:04;;;;;;;25.03;10.67;;;;;;;;;;5034000;28;20445;-68
2023/12/08 00:34:32;;;;;;;16.20;8.27;;;;;;;;;;5031375;28;20073;-68
2023/12/08 00:36:58;;;;;;;10.90;5.43;;;;;;;;;;5033533;28;20037;-69
2023/12/08 00:39:23;;;;;;;19.23;7.73;;;;;;;;;;5034179;28;20469;-69
2023/12/08 00:41:48;;;;;;;14.77;7.20;;;;;;;;;;5040293;28;20021;-69
2023/12/08 00:44:13;;;;;;;17.37;7.70;;;;;;;;;;5036680;28;20021;-68
2023/12/08 00:46:39;;;;;;;13.37;6.33;;;;;;;;;;5039461;28;20037;-70
2023/12/08 00:49:04;;;;;;;16.97;7.43;;;;;;;;;;5038721;28;20210;-69
2023/12/08 00:51:29;;;;;;;14.13;5.37;;;;;;;;;;5037048;28;20104;-68
2023/12/08 00:53:54;;;;;;;14.50;6.50;;;;;;;;;;5036220;28;20029;-68
2023/12/08 00:56:20;;;;;;;18.97;8.43;;;;;;;;;;5035892;28;20154;-69
2023/12/08 00:58:45;;;;;;;20.10;8.87;;;;;;;;;;5037654;28;20033;-69
2023/12/08 01:01:11;;;;;;;16.60;6.43;;;;;;;;;;5033232;28;20044;-69
2023/12/08 01:03:36;;;;;;;15.90;7.10;;;;;;;;;;5032872;28;20142;-69
2023/12/08 01:06:01;;;;;;;14.83;5.97;;;;;;;;;;5038300;28;20037;-69
2023/12/08 01:08:26;;;;;;;17.53;7.23;;;;;;;;;;5030720;28;20045;-70
2023/12/08 01:10:52;;;;;;;14.93;6.17;;;;;;;;;;5033810;28;20037;-68
2023/12/08 01:13:17;;;;;;;16.67;7.13;;;;;;;;;;5031393;28;20383;-68
2023/12/08 01:15:42;;;;;;;12.50;5.50;;;;;;;;;;5033065;28;20049;-69
2023/12/08 01:18:08;;;;;;;20.97;8.27;;;;;;;;;;5036264;28;20045;-69
2023/12/08 01:20:33;;;;;;;18.30;7.40;;;;;;;;;;5038593;28;20120;-68
2023/12/08 01:22:59;;;;;;;19.77;8.57;;;;;;;;;;5037574;28;20497;-68
2023/12/08 01:25:24;;;;;;;16.43;7.53;;;;;;;;;;5038575;28;20038;-68
2023/12/08 01:27:49;;;;;;;15.93;6.77;;;;;;;;;;5040442;28;20033;-67
2023/12/08 01:30:15;;;;;;;17.83;7.33;;;;;;;;;;5038498;28;20029;-66
2023/12/08 01:32:40;;;;;;;21.87;8.37;;;;;;;;;;5037584;28;20037;-66
2023/12/08 01:35:05;;;;;;;22.13;9.27;;;;;;;;;;5035399;28;20039;-66
2023/12/08 01:37:31;;;;;;;23.03;9.90;;;;;;;;;;5036469;28;20123;-66
2023/12/08 01:39:56;;;;;;;19.10;8.07;;;;;;;;;;5035503;28;20025;-67
2023/12/08 01:42:21;;;;;;;9.97;4.67;;;;;;;;;;5037254;28;20424;-67
2023/12/08 01:44:46;;;;;;;21.40;9.40;;;;;;;;;;5037705;28;20545;-65
2023/12/08 01:47:12;;;;;;;16.80;6.97;;;;;;;;;;5035949;28;20037;-66
2023/12/08 01:49:38;;;;;;;21.63;10.20;;;;;;;;;;5034592;28;20294;-65
2023/12/08 01:52:04;;;;;;;14.40;6.20;;;;;;;;;;5034932;28;20116;-67
2023/12/08 01:54:30;;;;;;;14.77;6.63;;;;;;;;;;5032338;28;20069;-67
2023/12/08 01:56:55;;;;;;;19.63;8.97;;;;;;;;;;5037017;28;20056;-68
2023/12/08 01:59:21;;;;;;;14.17;5.60;;;;;;;;;;5032826;28;20032;-68
2023/12/08 02:01:46;;;;;;;19.27;7.80;;;;;;;;;;5038171;28;20025;-69
2023/12/08 02:04:12;;;;;;;21.30;9.20;;;;;;;;;;5040606;28;20505;-69
2023/12/08 02:06:37;;;;;;;16.20;7.03;;;;;;;;;;5036814;28;20079;-69
2023/12/08 02:09:02;;;;;;;22.83;9.90;;;;;;;;;;5038053;28;20068;-69
2023/12/08 02:11:28;;;;;;;21.27;9.57;;;;;;;;;;5035334;28;20180;-69
2023/12/08 02:13:53;;;;;;;19.50;7.90;;;;;;;;;;5037784;28;20032;-68
2023/12/08 02:16:19;;;;;;;15.43;7.27;;;;;;;;;;5035858;28;20131;-69
2023/12/08 02:18:44;;;;;;;24.03;9.93;;;;;;;;;;5038420;28;20094;-68
2023/12/08 02:21:10;;;;;;;13.67;5.17;;;;;;;;;;5031313;28;20036;-69
2023/12/08 02:23:35;;;;;;;18.60;8.63;;;;;;;;;;5035603;28;20033;-71
2023/12/08 02:26:01;;;;;;;18.57;9.20;;;;;;;;;;5037659;28;20035;-70
2023/12/08 02:28:26;;;;;;;23.37;9.10;;;;;;;;;;5035657;28;20045;-69
2023/12/08 02:30:53;;;;;;;21.47;10.47;;;;;;;;;;5034800;28;20381;-70
2023/12/08 02:33:23;;;;;;;15.03;6.87;;;;;;;;;;5033704;28;20094;-69
2023/12/08 02:35:49;;;;;;;21.47;10.57;;;;;;;;;;5037040;28;20489;-68
2023/12/08 02:38:17;;;;;;;18.27;7.93;;;;;;;;;;5038794;28;20033;-70
2023/12/08 02:40:42;;;;;;;17.17;7.57;;;;;;;;;;5033528;28;20513;-72
2023/12/08 02:43:07;;;;;;;15.33;5.73;;;;;;;;;;5032894;28;20075;-70
2023/12/08 02:45:33;;;;;;;15.53;6.83;;;;;;;;;;5037097;28;20045;-71
2023/12/08 02:47:58;;;;;;;15.97;7.27;;;;;;;;;;5034361;28;20041;-69
2023/12/08 02:50:23;;;;;;;18.70;7.97;;;;;;;;;;5034376;28;20045;-68
2023/12/08 02:52:48;;;;;;;16.47;6.97;;;;;;;;;;5034198;28;20896;-71
2023/12/08 02:55:14;;;;;;;16.17;7.07;;;;;;;;;;5037368;28;20032;-69
2023/12/08 02:57:39;;;;;;;19.37;9.13;;;;;;;;;;5032213;28;20037;-68
2023/12/08 03:00:05;;;;;;;16.83;7.20;;;;;;;;;;5038481;28;20392;-69
2023/12/08 03:02:30;;;;;;;19.40;8.40;;;;;;;;;;5035160;28;20069;-69
2023/12/08 03:04:55;;;;;;;16.30;7.33;;;;;;;;;;5034477;28;20052;-69
2023/12/08 03:07:20;;;;;;;12.37;6.20;;;;;;;;;;5033435;28;20610;-69
2023/12/08 03:09:46;;;;;;;14.87;6.17;;;;;;;;;;5032953;28;20037;-70
2023/12/08 03:12:11;;;;;;;17.87;6.93;;;;;;;;;;5038774;28;20458;-68
2023/12/08 03:14:36;;;;;;;8.83;4.47;;;;;;;;;;5034624;28;20083;-68
2023/12/08 03:17:01;;;;;;;21.23;8.37;;;;;;;;;;5033718;28;20124;-68
2023/12/08 03:19:27;;;;;;;19.27;8.93;;;;;;;;;;5032736;28;20060;-70
2023/12/08 03:21:52;;;;;;;15.90;6.57;;;;;;;;;;5035673;28;20052;-69
2023/12/08 03:24:17;;;;;;;22.57;9.60;;;;;;;;;;5034304;28;20536;-68
2023/12/08 03:26:43;;;;;;;21.47;9.13;;;;;;;;;;5037512;28;20038;-69
2023/12/08 03:29:08;;;;;;;9.93;4.90;;;;;;;;;;5036769;28;20105;-69
2023/12/08 03:31:33;;;;;;;15.70;7.03;;;;;;;;;;5021746;28;20060;-68
2023/12/08 03:33:58;;;;;;;20.37;8.50;;;;;;;;;;5035542;28;20037;-68
2023/12/08 03:36:24;;;;;;;23.67;9.00;;;;;;;;;;5035424;28;20353;-68
2023/12/08 03:38:49;;;;;;;22.03;10.30;;;;;;;;;;5036321;28;20044;-69
2023/12/08 03:41:15;;;;;;;16.47;8.30;;;;;;;;;;5030401;28;20048;-70
2023/12/08 03:43:40;;;;;;;16.27;7.70;;;;;;;;;;5038440;28;20114;-69
2023/12/08 03:46:06;;;;;;;16.90;7.97;;;;;;;;;;5034011;28;20494;-69
2023/12/08 03:48:31;;;;;;;12.63;6.37;;;;;;;;;;5032456;28;20033;-65
2023/12/08 03:50:56;;;;;;;12.27;6.37;;;;;;;;;;5029952;28;20055;-67
2023/12/08 03:53:22;;;;;;;20.87;8.80;;;;;;;;;;5034808;28;20080;-65
2023/12/08 03:55:48;;;;;;;17.07;8.03;;;;;;;;;;5033647;28;20442;-67
2023/12/08 03:58:13;;;;;;;17.47;7.77;;;;;;;;;;5036537;28;20167;-67
2023/12/08 04:00:38;;;;;;;18.63;8.00;;;;;;;;;;5032679;28;20029;-66
2023/12/08 04:03:03;;;;;;;15.67;7.53;;;;;;;;;;5037732;28;20037;-67
2023/12/08 04:05:28;;;;;;;17.33;8.37;;;;;;;;;;5034347;28;20099;-65
2023/12/08 04:07:54;;;;;;;16.07;7.43;;;;;;;;;;5034681;28;20575;-67
2023/12/08 04:10:19;;;;;;;15.37;6.87;;;;;;;;;;5033390;28;20033;-65
2023/12/08 04:12:44;;;;;;;20.43;8.50;;;;;;;;;;5035316;28;20028;-67
2023/12/08 04:15:10;;;;;;;22.03;9.90;;;;;;;;;;5039363;28;20041;-67
2023/12/08 04:17:35;;;;;;;22.47;10.20;;;;;;;;;;5035657;28;20029;-67
2023/12/08 04:20:00;;;;;;;18.97;8.97;;;;;;;;;;5035888;28;20041;-66
2023/12/08 04:22:26;;;;;;;12.27;5.50;;;;;;;;;;5043422;28;20041;-68
2023/12/08 04:24:51;;;;;;;14.07;5.87;;;;;;;;;;5038772;28;20063;-66
2023/12/08 04:27:17;;;;;;;11.20;5.57;;;;;;;;;;5034601;28;20064;-67
2023/12/08 04:29:42;;;;;;;19.97;8.50;;;;;;;;;;5038216;28;20049;-66
2023/12/08 04:32:07;;;;;;;18.53;9.20;;;;;;;;;;5041421;28;20030;-66
2023/12/08 04:34:32;;;;;;;21.43;8.83;;;;;;;;;;5041017;28;20037;-67
2023/12/08 04:36:58;;;;;;;19.30;9.20;;;;;;;;;;5032894;28;20124;-66
2023/12/08 04:39:23;;;;;;;19.00;9.07;;;;;;;;;;5032516;28;20045;-65
2023/12/08 04:41:48;;;;;;;25.07;9.13;;;;;;;;;;5036899;28;20409;-66
2023/12/08 04:44:14;;;;;;;17.57;7.80;;;;;;;;;;5038758;28;20116;-66
2023/12/08 04:46:39;;;;;;;18.27;7.63;;;;;;;;;;5035445;28;20041;-66
2023/12/08 04:49:04;;;;;;;12.93;5.97;;;;;;;;;;5032667;28;20052;-65
2023/12/08 04:51:29;;;;;;;18.97;7.70;;;;;;;;;;5038044;28;20037;-65
2023/12/08 04:53:55;;;;;;;14.47;5.53;;;;;;;;;;5038857;28;20043;-66
2023/12/08 04:56:20;;;;;;;18.17;7.77;;;;;;;;;;5036021;28;20037;-65
2023/12/08 04:58:47;;;;;;;18.27;7.83;;;;;;;;;;5037077;28;20049;-71
2023/12/08 05:01:13;;;;;;;19.93;9.00;;;;;;;;;;5039335;28;20501;-70
2023/12/08 05:03:38;;;;;;;21.57;9.30;;;;;;;;;;5039127;28;20033;-71
2023/12/08 05:06:04;;;;;;;22.33;10.03;;;;;;;;;;5039371;28;20588;-69
2023/12/08 05:08:29;;;;;;;20.53;8.47;;;;;;;;;;5034768;28;20081;-69
2023/12/08 05:10:54;;;;;;;20.20;8.77;;;;;;;;;;5040740;28;20736;-69
2023/12/08 05:13:19;;;;;;;13.37;5.47;;;;;;;;;;5037364;28;20064;-71
2023/12/08 05:15:45;;;;;;;18.33;7.50;;;;;;;;;;5035720;28;20045;-70
2023/12/08 05:18:10;;;;;;;18.90;8.87;;;;;;;;;;5035323;28;20049;-70
2023/12/08 05:20:35;;;;;;;18.37;7.50;;;;;;;;;;5036793;28;20040;-70
2023/12/08 05:23:01;;;;;;;16.20;6.30;;;;;;;;;;5036035;28;20055;-69
2023/12/08 05:25:26;;;;;;;9.97;4.50;;;;;;;;;;5032311;28;20080;-69
2023/12/08 05:27:51;;;;;;;18.30;8.20;;;;;;;;;;5034781;28;20037;-72
2023/12/08 05:30:17;;;;;;;9.00;5.03;;;;;;;;;;5039327;28;20030;-70
2023/12/08 05:32:42;;;;;;;18.90;7.97;;;;;;;;;;5039639;28;20048;-69
2023/12/08 05:35:08;;;;;;;19.07;9.47;;;;;;;;;;5036657;28;20048;-68
2023/12/08 05:37:33;;;;;;;20.30;8.07;;;;;;;;;;5031392;28;20118;-69
2023/12/08 05:39:58;;;;;;;19.83;8.67;;;;;;;;;;5034421;28;20041;-71
2023/12/08 05:42:23;;;;;;;13.80;6.20;;;;;;;;;;5039169;28;20508;-72
2023/12/08 05:44:48;;;;;;;19.93;8.73;;;;;;;;;;5035963;28;20033;-72
2023/12/08 05:47:14;;;;;;;16.23;6.47;;;;;;;;;;5032000;28;20108;-68
2023/12/08 05:49:39;;;;;;;12.63;5.90;;;;;;;;;;5032258;28;20037;-72
2023/12/08 05:52:04;;;;;;;19.33;9.27;;;;;;;;;;5035369;28;20033;-72
2023/12/08 05:54:30;;;;;;;15.97;7.57;;;;;;;;;;5034391;28;20037;-68
2023/12/08 05:56:55;;;;;;;20.33;8.53;;;;;;;;;;5032457;28;20038;-72
2023/12/08 05:59:20;;;;;;;18.73;8.43;;;;;;;;;;5041310;28;20049;-69
2023/12/08 06:01:45;;;;;;;19.10;9.10;;;;;;;;;;5039879;28;20192;-70
2023/12/08 06:04:10;;;;;;;26.83;10.73;;;;;;;;;;5038703;28;20129;-70
2023/12/08 06:06:36;;;;;;;16.27;6.90;;;;;;;;;;5032443;28;20029;-71
2023/12/08 06:09:02;;;;;;;23.37;8.80;;;;;;;;;;5035741;28;20067;-69
2023/12/08 06:11:28;;;;;;;20.27;8.73;;;;;;;;;;5036954;28;20029;-72
2023/12/08 06:13:53;;;;;;;14.37;6.33;;;;;;;;;;5037136;28;20507;-72
2023/12/08 06:16:18;;;;;;;22.10;8.37;;;;;;;;;;5034013;28;20037;-71
2023/12/08 06:18:44;;;;;;;17.33;7.10;;;;;;;;;;5032589;28;20021;-69
2023/12/08 06:21:09;;;;;;;16.70;7.63;;;;;;;;;;5037210;28;20029;-71
2023/12/08 06:23:34;;;;;;;17.37;7.57;;;;;;;;;;5035275;28;20026;-74
2023/12/08 06:25:59;;;;;;;22.30;9.07;;;;;;;;;;5037453;28;20126;-71
2023/12/08 06:28:25;;;;;;;26.00;9.93;;;;;;;;;;5035298;28;20029;-72
2023/12/08 06:30:50;;;;;;;21.20;8.87;;;;;;;;;;5035183;28;20038;-72
2023/12/08 06:33:15;;;;;;;21.67;8.63;;;;;;;;;;5033844;28;20437;-70
2023/12/08 06:35:40;;;;;;;23.23;8.67;;;;;;;;;;5036983;28;20056;-70
2023/12/08 06:38:06;;;;;;;20.23;7.90;;;;;;;;;;5038379;28;20272;-70
2023/12/08 06:40:31;;;;;;;20.03;8.50;;;;;;;;;;5034660;28;20393;-73
2023/12/08 06:42:56;;;;;;;20.87;8.17;;;;;;;;;;5032284;28;20462;-71
2023/12/08 06:45:22;;;;;;;19.00;8.40;;;;;;;;;;5029862;28;20045;-71
2023/12/08 06:47:47;;;;;;;19.00;8.07;;;;;;;;;;5039332;28;20053;-72
2023/12/08 06:50:12;;;;;;;21.00;8.40;;;;;;;;;;5035606;28;20037;-70
2023/12/08 06:52:37;;;;;;;22.03;9.27;;;;;;;;;;5037105;28;20091;-69
2023/12/08 06:55:03;;;;;;;25.67;11.30;;;;;;;;;;5035005;28;20033;-72
2023/12/08 06:57:28;;;;;;;17.60;7.23;;;;;;;;;;5028934;28;20017;-70
2023/12/08 06:59:53;;;;;;;18.90;8.23;;;;;;;;;;5036397;28;20068;-68
2023/12/08 07:02:18;;;;;;;21.50;8.27;;;;;;;;;;5036178;28;20644;-71
2023/12/08 07:04:44;;;;;;;21.03;8.70;;;;;;;;;;5033830;28;20029;-72
2023/12/08 07:07:09;;;;;;;21.67;9.23;;;;;;;;;;5029084;28;20132;-70
2023/12/08 07:09:34;;;;;;;25.57;11.57;;;;;;;;;;5037032;28;20037;-72
2023/12/08 07:12:00;;;;;;;27.50;11.03;;;;;;;;;;5034632;28;20166;-71
2023/12/08 07:14:25;;;;;;;21.40;8.07;;;;;;;;;;5034207;28;20520;-70
2023/12/08 07:16:50;;;;;;;26.13;10.67;;;;;;;;;;5029694;28;20104;-69
2023/12/08 07:19:15;;;;;;;21.77;9.10;;;;;;;;;;5034479;28;20052;-64
2023/12/08 07:21:44;;;;;;;20.57;9.47;;;;;;;;;;5033048;28;20108;-65
2023/12/08 07:24:12;;;;;;;16.37;8.17;;;;;;;;;;5034775;28;20033;-65
2023/12/08 07:26:37;;;;;;;13.77;6.37;;;;;;;;;;5034655;28;20174;-66
2023/12/08 07:29:03;;;;;;;23.33;9.47;;;;;;;;;;5033574;28;20538;-65
2023/12/08 07:31:28;;;;;;;21.10;10.00;;;;;;;;;;5030941;28;20021;-66
2023/12/08 07:33:53;;;;;;;15.57;7.60;;;;;;;;;;5032788;28;20028;-66
2023/12/08 07:36:18;;;;;;;28.30;11.40;;;;;;;;;;5031610;28;20038;-66
2023/12/08 07:38:44;;;;;;;15.27;6.77;;;;;;;;;;5037114;28;20401;-65
2023/12/08 07:41:09;;;;;;;29.33;10.80;;;;;;;;;;5033797;28;20059;-66
2023/12/08 07:43:35;;;;;;;22.43;10.10;;;;;;;;;;5033850;28;20057;-67
2023/12/08 07:46:00;;;;;;;13.90;6.77;;;;;;;;;;5034064;28;20059;-66
2023/12/08 07:48:25;;;;;;;25.27;9.80;;;;;;;;;;5035092;28;20493;-66
2023/12/08 07:50:51;;;;;;;22.00;9.50;;;;;;;;;;5035996;28;20045;-67
2023/12/08 07:53:16;;;;;;;29.57;12.60;;;;;;;;;;5031756;28;20036;-65
2023/12/08 07:55:41;;;;;;;28.00;11.97;;;;;;;;;;5037895;28;20063;-64
2023/12/08 07:58:06;;;;;;;21.77;8.60;;;;;;;;;;5032628;28;20073;-66
2023/12/08 08:00:32;;;;;;;29.67;10.80;;;;;;;;;;5031309;28;20090;-65
2023/12/08 08:02:57;;;;;;;12.07;5.60;;;;;;;;;;5030599;28;20060;-67
2023/12/08 08:05:24;;;;;;;21.10;8.70;;;;;;;;;;5030331;28;20439;-67
2023/12/08 08:07:49;;;;;;;17.33;8.47;;;;;;;;;;5036723;28;20409;-65
2023/12/08 08:10:14;;;;;;;19.70;7.57;;;;;;;;;;5032848;28;20030;-65
2023/12/08 08:12:40;;;;;;;24.10;8.47;;;;;;;;;;5029337;28;20047;-66
2023/12/08 08:15:05;;;;;;;22.13;8.80;;;;;;;;;;5013172;28;20050;-66
2023/12/08 08:17:31;;;;;;;17.30;7.20;;;;;;;;;;4997894;28;20620;-66
2023/12/08 08:19:56;;;;;;;18.47;7.17;;;;;;;;;;4998258;28;20037;-66
2023/12/08 08:22:21;;;;;;;25.53;9.57;;;;;;;;;;4995353;28;20240;-65
2023/12/08 08:24:46;;;;;;;22.13;9.93;;;;;;;;;;5000675;28;20038;-64
2023/12/08 08:27:12;;;;;;;26.93;11.27;;;;;;;;;;4999283;28;20121;-65
2023/12/08 08:29:37;;;;;;;30.53;12.53;;;;;;;;;;4998404;28;20034;-67
2023/12/08 08:32:02;;;;;;;34.07;14.20;;;;;;;;;;5001607;28;20096;-67
2023/12/08 08:34:29;;;;;;;32.00;14.73;;;;;;;;;;4995239;28;20049;-66
2023/12/08 08:36:55;;;;;;;31.67;12.07;;;;;;;;;;4991943;28;20510;-67
2023/12/08 08:39:20;;;;;;;32.80;12.37;;;;;;;;;;4997914;28;20042;-65
2023/12/08 08:41:45;;;;;;;27.93;11.43;;;;;;;;;;4996155;28;20449;-64
2023/12/08 08:44:10;;;;;;;21.90;10.07;;;;;;;;;;4996738;28;20027;-68
2023/12/08 08:46:38;;;;;;;28.97;12.50;;;;;;;;;;4996499;28;20030;-65
2023/12/08 08:49:04;;;;;;;29.10;11.87;;;;;;;;;;4998922;28;20049;-66
2023/12/08 08:51:30;;;;;;;30.00;11.93;;;;;;;;;;4997364;28;20686;-66
2023/12/08 08:53:55;;;;;;;29.87;11.33;;;;;;;;;;4997490;28;20038;-66
2023/12/08 08:56:20;;;;;;;28.20;10.67;;;;;;;;;;4995894;28;20422;-67
2023/12/08 08:58:45;;;;;;;30.97;12.53;;;;;;;;;;4995889;28;20026;-65
2023/12/08 09:01:11;;;;;;;21.63;9.57;;;;;;;;;;4996273;28;20034;-66
2023/12/08 09:03:36;;;;;;;26.77;10.00;;;;;;;;;;4999671;28;20061;-67
2023/12/08 09:06:01;;;;;;;28.53;11.93;;;;;;;;;;5000710;28;20026;-67
2023/12/08 09:08:26;;;;;;;30.33;12.13;;;;;;;;;;5003185;28;20038;-65
2023/12/08 09:10:52;;;;;;;22.10;10.30;;;;;;;;;;4998239;28;20045;-66
2023/12/08 09:13:18;;;;;;;28.93;12.43;;;;;;;;;;4998187;28;20095;-65
2023/12/08 09:15:43;;;;;;;32.23;13.27;;;;;;;;;;5028183;28;20056;-66
2023/12/08 09:18:09;;;;;;;19.97;8.87;;;;;;;;;;5036957;28;20060;-66
2023/12/08 09:20:36;;;;;;;22.37;8.87;;;;;;;;;;5031267;28;20040;-67
2023/12/08 09:23:01;;;;;;;17.30;7.83;;;;;;;;;;5034692;28;20026;-67
2023/12/08 09:25:26;;;;;;;22.23;8.97;;;;;;;;;;5034953;28;20028;-68
2023/12/08 09:27:52;;;;;;;29.27;11.10;;;;;;;;;;5036592;28;20052;-66
2023/12/08 09:30:17;;;;;;;18.67;8.90;;;;;;;;;;5038114;28;20029;-68
2023/12/08 09:32:42;;;;;;;25.73;10.17;;;;;;;;;;5032986;28;20049;-68
2023/12/08 09:35:07;;;;;;;33.50;12.50;;;;;;;;;;5033504;28;20417;-67
2023/12/08 09:37:33;;;;;;;22.33;8.90;;;;;;;;;;5035565;28;20034;-68
2023/12/08 09:39:58;;;;;;;31.20;13.53;;;;;;;;;;5037528;28;20061;-73
2023/12/08 09:42:56;;;;;;;32.60;12.83;;;;;;;;;;5033255;28;20045;-70
2023/12/08 09:45:21;;;;;;;16.87;7.60;;;;;;;;;;5008156;28;20041;-73
2023/12/08 09:47:47;;;;;;;33.50;12.63;;;;;;;;;;5039044;28;20056;-70
2023/12/08 09:50:12;;;;;;;27.80;10.87;;;;;;;;;;5037697;28;20120;-71
2023/12/08 09:52:38;;;;;;;33.70;11.97;;;;;;;;;;5036144;28;20101;-71
2023/12/08 09:55:04;;;;;;;31.27;12.73;;;;;;;;;;5035941;28;20043;-71
2023/12/08 09:57:30;;;;;;;28.47;11.73;;;;;;;;;;5035190;28;20037;-70
2023/12/08 09:59:57;;;;;;;20.07;5.93;;;;;;;;;;5034915;28;20047;-71
2023/12/08 10:02:22;;;;;;;19.00;8.10;;;;;;;;;;5037927;28;20055;-72
2023/12/08 10:04:47;;;;;;;22.20;10.07;;;;;;;;;;5035527;28;20030;-71
2023/12/08 10:07:13;;;;;;;35.90;14.43;;;;;;;;;;5036055;28;20060;-70
2023/12/08 10:09:41;;;;;;;31.40;12.37;;;;;;;;;;5033023;28;20404;-69
2023/12/08 10:12:06;;;;;;;29.30;11.77;;;;;;;;;;5036060;28;20041;-68
2023/12/08 10:14:31;;;;;;;37.50;15.03;;;;;;;;;;5034969;28;20123;-69
2023/12/08 10:16:57;;;;;;;33.70;13.97;;;;;;;;;;5039823;28;20083;-69
2023/12/08 10:19:22;;;;;;;23.77;9.70;;;;;;;;;;5032894;28;20047;-70
2023/12/08 10:22:00;;;;;;;28.57;11.53;;;;;;;;;;5031941;28;20037;-69
2023/12/08 10:24:30;;;;;;;22.90;10.37;;;;;;;;;;5035639;28;20264;-70
2023/12/08 10:26:56;;;;;;;31.70;13.20;;;;;;;;;;5037143;28;20612;-69
2023/12/08 10:29:21;;;;;;;31.00;11.00;;;;;;;;;;5031318;28;20773;-70
2023/12/08 10:31:47;;;;;;;16.93;7.27;;;;;;;;;;5031808;28;20120;-69
2023/12/08 10:34:13;;;;;;;35.13;14.07;;;;;;;;;;5034500;28;20041;-69
2023/12/08 10:36:39;;;;;;;30.63;12.00;;;;;;;;;;5034198;28;20057;-69
2023/12/08 10:39:04;;;;;;;30.70;12.60;;;;;;;;;;5033131;28;20084;-69
2023/12/08 10:41:29;;;;;;;30.43;12.80;;;;;;;;;;5031630;28;20673;-69
2023/12/08 10:43:55;;;;;;;27.03;9.87;;;;;;;;;;5033734;28;20032;-69
2023/12/08 10:46:21;;;;;;;30.27;11.93;;;;;;;;;;5036953;28;20072;-69
2023/12/08 10:48:47;;;;;;;28.03;12.00;;;;;;;;;;5033994;28;20040;-69
2023/12/08 10:51:14;;;;;;;31.80;12.47;;;;;;;;;;5035719;28;20301;-67
2023/12/08 10:53:40;;;;;;;31.53;12.40;;;;;;;;;;5036277;28;20056;-65
2023/12/08 10:56:12;;;;;;;33.47;14.00;;;;;;;;;;5035425;28;20548;-66
2023/12/08 10:58:40;;;;;;;28.47;12.03;;;;;;;;;;5037637;28;20033;-66
2023/12/08 11:01:14;;;;;;;28.97;11.80;;;;;;;;;;5034654;28;20077;-65
2023/12/08 11:03:41;;;;;;;30.23;12.73;;;;;;;;;;5034939;28;20034;-66
2023/12/08 11:06:08;;;;;;;33.13;13.47;;;;;;;;;;5033217;28;20034;-65
2023/12/08 11:08:35;;;;;;;24.60;9.70;;;;;;;;;;5034486;28;20045;-66
2023/12/08 11:11:03;;;;;;;27.20;11.23;;;;;;;;;;5038354;28;20040;-65
2023/12/08 11:13:29;;;;;;;31.43;13.43;;;;;;;;;;5034709;28;20033;-66
2023/12/08 11:16:05;;;;;;;28.27;12.10;;;;;;;;;;5034480;28;20048;-65
2023/12/08 11:18:34;;;;;;;31.37;12.63;;;;;;;;;;5034347;28;20582;-64
2023/12/08 11:21:00;;;;;;;28.97;12.67;;;;;;;;;;5035462;28;20037;-64
2023/12/08 11:23:25;;;;;;;26.77;10.63;;;;;;;;;;5030096;28;20036;-65
2023/12/08 11:25:56;;;;;;;33.00;13.50;;;;;;;;;;5036514;28;20028;-64
2023/12/08 11:28:24;;;;;;;30.92;12.38;;;;;;;;;;5030369;28;20087;-65
2023/12/08 11:31:06;;;;;;;29.43;12.53;;;;;;;;;;5034933;28;20029;-65
2023/12/08 11:33:31;;;;;;;;;;;;;;;;;;5035055;28;20502;-65
2023/12/08 11:36:09;;;;;;;23.50;10.90;;;;;;;;;;5031300;28;19951;-66
2023/12/08 11:38:35;;;;;;;24.00;9.70;;;;;;;;;;5030223;28;20083;-64
2023/12/08 11:41:00;;;;;;;32.67;14.20;;;;;;;;;;5028523;28;20033;-65
2023/12/08 11:43:29;;;;;;;26.80;11.13;;;;;;;;;;5038576;28;20638;-64
2023/12/08 11:45:54;;;;;;;35.60;14.03;;;;;;;;;;5036701;28;20168;-66
2023/12/08 11:48:19;;;;;;;27.07;10.70;;;;;;;;;;5032048;28;20091;-66
2023/12/08 11:50:46;;;;;;;31.47;13.33;;;;;;;;;;5032705;28;20034;-65
2023/12/08 11:53:11;;;;;;;26.10;10.57;;;;;;;;;;5038303;28;20033;-65
2023/12/08 11:55:38;;;;;;;27.10;11.37;;;;;;;;;;5035440;28;20528;-64
2023/12/08 11:58:04;;;;;;;24.90;9.67;;;;;;;;;;5032555;28;20033;-64
2023/12/08 12:00:31;;;;;;;22.27;8.47;;;;;;;;;;5037060;28;20496;-68
2023/12/08 12:02:57;;;;;;;26.10;11.70;;;;;;;;;;5035304;28;20033;-69
2023/12/08 12:05:22;;;;;;;28.87;12.13;;;;;;;;;;5034450;28;20518;-68
2023/12/08 12:07:49;;;;;;;27.33;11.37;;;;;;;;;;5034644;28;20025;-68
2023/12/08 12:10:16;;;;;;;24.23;11.70;;;;;;;;;;5031573;28;20128;-68
2023/12/08 12:12:44;;;;;;;26.17;11.30;;;;;;;;;;5031137;28;20604;-67
2023/12/08 12:15:10;;;;;;;29.20;13.77;;;;;;;;;;5033580;28;20049;-67
2023/12/08 12:17:36;;;;;;;32.27;13.27;;;;;;;;;;5035258;28;20040;-67
2023/12/08 12:20:02;;;;;;;29.57;12.13;;;;;;;;;;5030819;28;20087;-67
2023/12/08 12:22:27;;;;;;;25.67;10.07;;;;;;;;;;5033406;28;20038;-68
2023/12/08 12:24:52;;;;;;;22.53;10.83;;;;;;;;;;5034169;28;20029;-67
2023/12/08 12:27:18;;;;;;;28.10;11.43;;;;;;;;;;5034516;28;20021;-67
2023/12/08 12:29:46;;;;;;;24.97;10.87;;;;;;;;;;5036006;28;20593;-68
2023/12/08 12:32:11;;;;;;;29.77;12.53;;;;;;;;;;5039525;28;20115;-67
2023/12/08 12:34:38;;;;;;;30.20;12.53;;;;;;;;;;5038683;28;20481;-67
2023/12/08 12:37:07;;;;;;;25.43;9.97;;;;;;;;;;5034904;28;20075;-67
2023/12/08 12:39:34;;;;;;;31.47;12.27;;;;;;;;;;5026927;28;20075;-66
2023/12/08 12:42:00;;;;;;;28.63;12.60;;;;;;;;;;5036337;28;20032;-67
2023/12/08 12:44:39;;;;;;;26.37;11.33;;;;;;;;;;5040667;28;20057;-66
2023/12/08 12:47:04;;;;;;;27.37;11.10;;;;;;;;;;5033633;28;20025;-66
2023/12/08 12:49:29;;;;;;;25.03;10.67;;;;;;;;;;5032253;28;20116;-66
2023/12/08 12:51:55;;;;;;;32.53;14.10;;;;;;;;;;5036889;28;20037;-66
2023/12/08 12:54:30;;;;;;;31.03;12.97;;;;;;;;;;5037321;28;20500;-66
2023/12/08 12:56:55;;;;;;;28.63;11.63;;;;;;;;;;5034736;28;20037;-67
2023/12/08 12:59:20;;;;;;;33.67;13.90;;;;;;;;;;5031496;28;20095;-67
2023/12/08 13:01:48;;;;;;;30.40;12.77;;;;;;;;;;5036414;28;20069;-67
2023/12/08 13:04:15;;;;;;;33.27;13.07;;;;;;;;;;5036549;28;20185;-67
2023/12/08 13:06:40;;;;;;;32.40;12.40;;;;;;;;;;5037896;28;20021;-67
2023/12/08 13:09:06;;;;;;;32.50;13.70;;;;;;;;;;5038428;28;20037;-67
2023/12/08 13:11:31;;;;;;;35.37;14.20;;;;;;;;;;5036531;28;20025;-64
2023/12/08 13:13:57;;;;;;;37.10;13.37;;;;;;;;;;5039327;28;20076;-64
2023/12/08 13:16:25;;;;;;;30.70;12.73;;;;;;;;;;5039580;28;20045;-65
2023/12/08 13:18:51;;;;;;;35.13;14.13;;;;;;;;;;5034539;28;20109;-64
2023/12/08 13:21:16;;;;;;;30.20;12.47;;;;;;;;;;5037837;28;20219;-65
2023/12/08 13:23:42;;;;;;;36.20;13.77;;;;;;;;;;5038197;28;20034;-65
2023/12/08 13:26:08;;;;;;;33.97;13.43;;;;;;;;;;5035219;28;20033;-64
2023/12/08 13:28:33;;;;;;;34.47;14.33;;;;;;;;;;5036049;28;20033;-65
2023/12/08 13:30:58;;;;;;;34.27;13.87;;;;;;;;;;5034000;28;20116;-66
2023/12/08 13:33:24;;;;;;;35.10;13.90;;;;;;;;;;5040954;28;20052;-65
2023/12/08 13:35:50;;;;;;;33.33;14.47;;;;;;;;;;5038404;28;20083;-65
2023/12/08 13:38:15;;;;;;;35.80;14.47;;;;;;;;;;5041724;28;20481;-65
2023/12/08 13:40:41;;;;;;;35.83;12.77;;;;;;;;;;5037049;28;20040;-65
2023/12/08 13:43:06;;;;;;;36.30;14.23;;;;;;;;;;5037819;28;21178;-65
2023/12/08 13:45:32;;;;;;;33.23;13.83;;;;;;;;;;5036965;28;20272;-68
2023/12/08 13:47:57;;;;;;;34.73;13.93;;;;;;;;;;5033441;28;20085;-67
2023/12/08 13:50:23;;;;;;;33.90;13.50;;;;;;;;;;5036923;28;20489;-68
2023/12/08 13:52:48;;;;;;;28.57;12.03;;;;;;;;;;5036936;28;20029;-68
2023/12/08 13:55:13;;;;;;;36.77;13.67;;;;;;;;;;5035550;28;20037;-67
2023/12/08 13:57:38;;;;;;;33.17;13.63;;;;;;;;;;5044408;28;20029;-69
2023/12/08 14:00:05;;;;;;;39.73;13.97;;;;;;;;;;5037861;28;20032;-68
2023/12/08 14:02:31;;;;;;;36.20;11.93;;;;;;;;;;5041623;28;20026;-68
2023/12/08 14:04:56;;;;;;;38.23;14.60;;;;;;;;;;5038678;28;20024;-65
2023/12/08 14:07:21;;;;;;;40.20;15.63;;;;;;;;;;5036979;28;20033;-66
2023/12/08 14:09:47;;;;;;;38.80;14.90;;;;;;;;;;5034577;28;20301;-68
2023/12/08 14:12:12;;;;;;;38.93;15.27;;;;;;;;;;5039650;28;20048;-67
2023/12/08 14:14:37;;;;;;;39.10;15.23;;;;;;;;;;5035340;28;20045;-65
2023/12/08 14:17:02;;;;;;;38.90;14.40;;;;;;;;;;5036466;28;20426;-68